Time;durP1;ratioP1;P1;durP2;ratioP2;P2;SDS_P1;SDS_P2;PMS_P1;PMS_P2;Temp;Humidity;BMP_temperature;BMP_pressure;BME280_temperature;BME280_humidity;BME280_pressure;Samples;Min_cycle;Max_cycle;Signal;HPM_P1;HPM_P2
2022/07/15 00:00:55;;;;;;;3.60;1.30;;;;;;;18.39;48.90;99995.52;106058;1277;22553;-74
2022/07/15 00:03:22;;;;;;;3.50;1.40;;;;;;;18.32;48.99;100001.70;106001;1275;24234;-71
2022/07/15 00:05:49;;;;;;;1.90;1.40;;;;;;;18.27;49.06;100001.23;106183;1274;22608;-73
2022/07/15 00:08:16;;;;;;;2.60;1.40;;;;;;;18.21;49.14;100002.24;105915;1275;22539;-74
2022/07/15 00:10:43;;;;;;;2.60;1.50;;;;;;;18.14;49.18;100003.45;105393;1282;25464;-73
2022/07/15 00:13:10;;;;;;;4.70;1.60;;;;;;;18.11;49.58;100000.70;105143;1284;25481;-73
2022/07/15 00:15:37;;;;;;;2.40;1.60;;;;;;;18.12;49.65;100002.10;105180;1284;22626;-72
2022/07/15 00:18:05;;;;;;;3.30;1.20;;;;;;;18.15;49.67;100005.39;104975;1284;22554;-73
2022/07/15 00:24:57;;;;;;;5.50;1.50;;;;;;;17.98;49.85;100013.60;105136;1284;24557;-72
2022/07/15 00:27:24;;;;;;;4.50;1.60;;;;;;;17.93;50.05;100014.90;104981;1287;22535;-74
2022/07/15 00:29:51;;;;;;;6.10;1.60;;;;;;;17.91;50.18;100011.75;105408;1281;24222;-76
2022/07/15 00:32:19;;;;;;;4.70;1.50;;;;;;;17.88;50.27;100012.25;105676;1275;22749;-77
2022/07/15 00:34:46;;;;;;;3.40;1.10;;;;;;;17.83;50.34;100011.06;106085;1274;22569;-76
2022/07/15 00:37:13;;;;;;;4.80;1.60;;;;;;;17.80;50.60;100012.98;106147;1274;22619;-80
2022/07/15 00:39:40;;;;;;;3.80;1.40;;;;;;;17.81;50.89;100009.55;106122;1274;22888;-82
2022/07/15 00:42:43;;;;;;;6.90;1.60;;;;;;;17.82;50.83;100008.80;106013;1274;24160;-78
2022/07/15 00:45:00;;;;;;;3.10;1.30;;;;;;;17.84;50.88;100012.30;106155;1274;25422;-75
2022/07/15 00:47:27;;;;;;;3.80;1.30;;;;;;;17.80;51.11;100014.91;106019;1276;22560;-74
2022/07/15 00:49:54;;;;;;;5.80;1.50;;;;;;;17.83;51.15;100014.61;106052;1275;25326;-75
2022/07/15 00:52:25;;;;;;;5.90;1.20;;;;;;;17.85;51.14;100015.65;106032;1275;22618;-75
2022/07/15 00:54:59;;;;;;;1.80;1.10;;;;;;;17.82;51.14;100016.27;105872;1277;24227;-76
2022/07/15 00:57:28;;;;;;;2.60;1.40;;;;;;;17.79;51.13;100017.32;106006;1274;24371;-76
2022/07/15 01:00:01;;;;;;;4.60;1.70;;;;;;;17.75;51.47;100020.31;105563;1279;24270;-76
2022/07/15 01:06:49;;;;;;;3.50;1.20;;;;;;;17.67;51.61;100009.29;105851;1279;22542;-77
2022/07/15 01:13:34;;;;;;;6.30;1.20;;;;;;;17.68;52.05;100011.90;105253;1285;23960;-77
2022/07/15 01:16:03;;;;;;;3.20;1.20;;;;;;;17.65;51.98;100007.05;104655;1290;24732;-78
2022/07/15 01:18:31;;;;;;;3.80;1.20;;;;;;;17.62;52.12;100012.73;104929;1287;22586;-77
2022/07/15 01:20:58;;;;;;;2.30;1.40;;;;;;;17.61;52.07;100011.52;105224;1284;22650;-77
2022/07/15 01:23:26;;;;;;;4.40;1.30;;;;;;;17.54;52.31;100006.81;106760;1284;22572;-77
2022/07/15 01:26:13;;;;;;;4.00;1.50;;;;;;;17.44;52.45;100008.16;107460;1287;23407;-75
2022/07/15 01:32:53;;;;;;;5.80;1.50;;;;;;;17.40;52.99;100008.34;108998;1277;22702;-74
2022/07/15 01:35:20;;;;;;;4.80;1.70;;;;;;;17.39;52.81;100005.01;106063;1274;22534;-77
2022/07/15 01:37:49;;;;;;;2.50;1.10;;;;;;;17.37;52.82;100004.71;105983;1273;22553;-75
2022/07/15 01:40:16;;;;;;;3.30;1.60;;;;;;;17.34;53.01;100006.98;105863;1273;22580;-75
2022/07/15 01:42:44;;;;;;;4.50;1.60;;;;;;;17.32;53.16;100007.59;105773;1273;25314;-76
2022/07/15 01:45:13;;;;;;;3.10;1.20;;;;;;;17.30;53.17;100010.70;105814;1273;25244;-76
2022/07/15 01:47:43;;;;;;;3.50;1.40;;;;;;;17.25;53.07;100015.02;105968;1277;22559;-80
2022/07/15 01:50:14;;;;;;;3.10;1.20;;;;;;;17.16;52.99;100015.41;106050;1274;26672;-76
2022/07/15 01:53:07;;;;;;;4.20;1.20;;;;;;;16.99;53.25;100018.04;105956;1275;24250;-74
2022/07/15 01:55:34;;;;;;;3.80;1.30;;;;;;;16.91;53.48;100018.17;105949;1273;22625;-75
2022/07/15 01:58:01;;;;;;;3.90;1.50;;;;;;;16.90;53.64;100016.11;106036;1273;25340;-76
2022/07/15 02:00:28;;;;;;;5.10;1.60;;;;;;;16.90;53.91;100021.45;105325;1279;24428;-75
2022/07/15 02:02:55;;;;;;;3.80;1.40;;;;;;;16.91;53.93;100018.55;105260;1284;23258;-74
2022/07/15 02:05:24;;;;;;;6.00;1.40;;;;;;;16.90;53.70;100026.57;105236;1283;25131;-77
2022/07/15 02:07:53;;;;;;;4.80;1.50;;;;;;;16.84;53.77;100022.54;105321;1282;25234;-78
2022/07/15 02:10:21;;;;;;;3.30;1.30;;;;;;;16.76;53.99;100021.81;105751;1284;22530;-72
2022/07/15 02:12:48;;;;;;;3.20;1.30;;;;;;;16.63;54.07;100019.83;105724;1284;25409;-73
2022/07/15 02:15:19;;;;;;;4.50;1.30;;;;;;;16.57;54.34;100021.84;105646;1287;22561;-72
2022/07/15 02:18:10;;;;;;;2.30;1.30;;;;;;;16.42;54.70;100027.41;106116;1288;22764;-73
2022/07/15 02:20:38;;;;;;;6.60;1.60;;;;;;;16.27;55.02;100023.76;106212;1288;22657;-73
2022/07/15 02:23:06;;;;;;;2.20;1.40;;;;;;;16.17;55.38;100023.42;105127;1285;22615;-74
2022/07/15 02:25:34;;;;;;;2.70;1.20;;;;;;;16.13;55.57;100024.98;106558;1285;24385;-73
2022/07/15 02:28:06;;;;;;;4.30;1.40;;;;;;;16.14;55.78;100021.20;106877;1285;25299;-74
2022/07/15 02:30:37;;;;;;;2.90;1.20;;;;;;;16.13;55.81;100023.04;106435;1286;22744;-71
2022/07/15 02:33:06;;;;;;;2.80;1.30;;;;;;;16.08;55.97;100021.96;107342;1285;22612;-71
2022/07/15 02:35:34;;;;;;;3.30;1.30;;;;;;;16.10;56.15;100024.20;106243;1290;22800;-72
2022/07/15 02:38:02;;;;;;;3.70;1.70;;;;;;;16.11;56.12;100029.14;104759;1290;25434;-72
2022/07/15 02:40:30;;;;;;;7.00;1.60;;;;;;;16.09;56.18;100032.56;105079;1284;25231;-73
2022/07/15 02:43:00;;;;;;;3.20;1.40;;;;;;;16.06;56.21;100039.83;105423;1282;25401;-72
2022/07/15 02:45:30;;;;;;;4.20;1.90;;;;;;;15.96;56.10;100043.33;105481;1280;22855;-74
2022/07/15 02:47:57;;;;;;;6.20;2.30;;;;;;;15.88;56.35;100044.69;105563;1279;22856;-73
2022/07/15 02:50:28;;;;;;;7.40;2.40;;;;;;;15.84;56.40;100042.01;105719;1279;25854;-75
2022/07/15 02:52:57;;;;;;;9.90;2.60;;;;;;;15.87;56.36;100045.45;105437;1275;22559;-76
2022/07/15 02:55:25;;;;;;;6.60;2.80;;;;;;;15.87;56.29;100049.15;106135;1274;25243;-75
2022/07/15 02:57:52;;;;;;;6.40;2.70;;;;;;;15.86;56.16;100055.41;106052;1274;22617;-75
2022/07/15 03:00:19;;;;;;;10.30;2.80;;;;;;;15.88;56.16;100051.83;106256;1273;22527;-76
2022/07/15 03:02:48;;;;;;;6.90;3.20;;;;;;;15.86;56.21;100050.98;105136;1284;23222;-75
2022/07/15 03:05:17;;;;;;;7.10;2.80;;;;;;;15.87;56.23;100057.17;105290;1282;22560;-73
2022/07/15 03:07:45;;;;;;;4.20;2.10;;;;;;;15.87;56.32;100054.68;105266;1281;25637;-75
2022/07/15 03:10:16;;;;;;;4.20;2.60;;;;;;;15.86;56.54;100053.11;105515;1281;22536;-73
2022/07/15 03:12:44;;;;;;;7.80;2.80;;;;;;;15.83;56.49;100055.52;104633;1288;25276;-74
2022/07/15 03:15:11;;;;;;;5.50;2.40;;;;;;;15.84;56.60;100055.31;104440;1287;22774;-77
2022/07/15 03:17:41;;;;;;;4.10;1.90;;;;;;;15.85;56.67;100055.80;104614;1287;25263;-76
2022/07/15 03:20:09;;;;;;;4.40;2.00;;;;;;;15.82;56.68;100054.14;104751;1285;25312;-77
2022/07/15 03:22:43;;;;;;;5.90;1.70;;;;;;;15.74;56.70;100050.36;105468;1281;25257;-76
2022/07/15 03:25:10;;;;;;;2.80;1.70;;;;;;;15.75;56.88;100061.50;105558;1281;22622;-71
2022/07/15 03:27:37;;;;;;;4.90;2.00;;;;;;;15.75;56.89;100061.34;105119;1282;23977;-72
2022/07/15 03:30:06;;;;;;;6.60;1.80;;;;;;;15.74;57.03;100062.23;105477;1277;24611;-74
2022/07/15 03:32:33;;;;;;;4.00;1.60;;;;;;;15.76;57.14;100064.11;106020;1274;22753;-76
2022/07/15 03:35:01;;;;;;;2.70;1.90;;;;;;;15.76;56.97;100062.52;106117;1273;25494;-74
2022/07/15 03:37:32;;;;;;;2.70;1.40;;;;;;;15.79;57.02;100064.91;105854;1274;25351;-77
2022/07/15 03:39:59;;;;;;;4.40;1.50;;;;;;;15.80;56.88;100069.66;106068;1274;25380;-76
2022/07/15 03:42:26;;;;;;;4.20;1.80;;;;;;;15.83;56.73;100071.31;105359;1283;26492;-73
2022/07/15 03:44:53;;;;;;;4.80;1.80;;;;;;;15.84;56.55;100070.04;105256;1281;26501;-72
2022/07/15 03:47:19;;;;;;;3.70;1.50;;;;;;;15.79;56.49;100065.23;105588;1281;24326;-74
2022/07/15 03:49:46;;;;;;;4.80;1.50;;;;;;;15.78;56.62;100068.48;105438;1281;22536;-73
2022/07/15 03:52:13;;;;;;;2.90;1.10;;;;;;;15.73;56.43;100070.25;105253;1281;25362;-74
2022/07/15 03:54:40;;;;;;;2.90;1.20;;;;;;;15.72;56.45;100075.62;104754;1287;24259;-75
2022/07/15 03:57:07;;;;;;;4.10;1.70;;;;;;;15.73;56.47;100073.45;104733;1288;24316;-73
2022/07/15 03:59:34;;;;;;;6.10;1.70;;;;;;;15.71;56.49;100071.59;105072;1286;23944;-74
2022/07/15 04:02:01;;;;;;;2.30;1.30;;;;;;;15.69;56.65;100069.52;105597;1279;25474;-77
2022/07/15 04:04:28;;;;;;;2.80;1.20;;;;;;;15.67;56.72;100064.27;105475;1279;23997;-77
2022/07/15 04:06:56;;;;;;;4.40;1.20;;;;;;;15.67;56.77;100065.34;105053;1285;25355;-77
2022/07/15 04:09:23;;;;;;;4.40;1.40;;;;;;;15.63;56.94;100067.80;105098;1285;25352;-76
2022/07/15 04:11:51;;;;;;;3.10;1.60;;;;;;;15.56;56.73;100069.24;105087;1284;22554;-74
2022/07/15 04:14:19;;;;;;;3.00;1.70;;;;;;;15.53;56.95;100076.63;104950;1285;24427;-72
2022/07/15 04:16:46;;;;;;;3.10;1.60;;;;;;;15.52;57.11;100075.59;105086;1285;26628;-75
2022/07/15 04:23:45;;;;;;;7.60;2.00;;;;;;;15.51;57.30;100080.62;105450;1284;24229;-78
2022/07/15 04:26:12;;;;;;;6.00;2.20;;;;;;;15.50;57.26;100081.18;105597;1284;22820;-77
2022/07/15 04:28:40;;;;;;;4.70;2.40;;;;;;;15.50;57.23;100079.21;105410;1284;24943;-78
2022/07/15 04:31:07;;;;;;;6.00;2.40;;;;;;;15.53;57.14;100071.30;105542;1278;24228;-81
2022/07/15 04:33:50;;;;;;;3.90;1.90;;;;;;;15.55;57.15;100076.91;106152;1277;22565;-78
2022/07/15 04:36:17;;;;;;;4.40;1.70;;;;;;;15.59;57.10;100076.24;106235;1282;23401;-77
2022/07/15 04:38:43;;;;;;;6.20;1.80;;;;;;;15.65;56.73;100081.20;106038;1281;24453;-79
2022/07/15 04:41:11;;;;;;;3.20;1.70;;;;;;;15.69;56.52;100083.35;104862;1285;22621;-78
2022/07/15 04:43:39;;;;;;;4.40;1.10;;;;;;;15.69;56.47;100083.53;104800;1285;22777;-80
2022/07/15 04:46:09;;;;;;;4.70;1.20;;;;;;;15.73;56.44;100088.02;105589;1284;25246;-77
2022/07/15 04:51:22;;;;;;;4.40;1.50;;;;;;;15.83;55.97;100091.02;105326;1284;24218;-74
2022/07/15 04:53:49;;;;;;;5.00;1.50;;;;;;;15.89;55.95;100092.27;105341;1281;22541;-74
2022/07/15 04:56:16;;;;;;;7.70;1.90;;;;;;;15.93;55.90;100092.48;105576;1281;22547;-76
2022/07/15 04:58:43;;;;;;;6.40;1.60;;;;;;;15.98;55.72;100103.14;105846;1275;25322;-79
2022/07/15 05:01:11;;;;;;;10.20;1.90;;;;;;;16.00;55.66;100102.36;106474;1273;23423;-74
2022/07/15 05:03:39;;;;;;;4.40;1.70;;;;;;;15.97;55.42;100105.64;105997;1273;24790;-74
2022/07/15 05:06:06;;;;;;;7.50;2.00;;;;;;;15.95;55.68;100106.06;106188;1273;22566;-74
2022/07/15 05:08:35;;;;;;;8.00;1.80;;;;;;;15.99;55.87;100111.98;106024;1274;25853;-75
2022/07/15 05:11:02;;;;;;;10.40;2.00;;;;;;;16.02;55.73;100112.23;105899;1274;22851;-79
2022/07/15 05:13:29;;;;;;;5.10;1.90;;;;;;;16.06;55.65;100116.00;106060;1273;22707;-77
2022/07/15 05:15:58;;;;;;;7.10;1.70;;;;;;;16.07;55.41;100117.18;106167;1274;25090;-76
2022/07/15 05:18:26;;;;;;;7.30;2.20;;;;;;;16.08;55.07;100118.74;106006;1274;22553;-75
2022/07/15 05:20:55;;;;;;;6.70;2.40;;;;;;;16.11;55.05;100122.23;105873;1276;22700;-80
2022/07/15 05:23:25;;;;;;;8.80;2.30;;;;;;;16.17;54.88;100126.27;105974;1274;22537;-75
2022/07/15 05:25:55;;;;;;;2.30;1.30;;;;;;;16.21;54.45;100130.02;106108;1274;22537;-80
2022/07/15 05:28:22;;;;;;;10.70;1.60;;;;;;;16.25;54.30;100134.50;106180;1273;25727;-77
2022/07/15 05:30:50;;;;;;;2.50;1.80;;;;;;;16.28;54.13;100133.68;105690;1279;22641;-77
2022/07/15 05:33:17;;;;;;;4.30;1.00;;;;;;;16.37;53.94;100138.52;105271;1285;22644;-77
2022/07/15 05:35:44;;;;;;;6.10;1.20;;;;;;;16.42;53.59;100142.40;105258;1284;25406;-74
2022/07/15 05:38:19;;;;;;;6.90;1.30;;;;;;;16.51;53.64;100146.18;104609;1288;22622;-75
2022/07/15 05:40:46;;;;;;;2.20;1.10;;;;;;;16.58;53.57;100142.86;104162;1294;23449;-75
2022/07/15 05:43:13;;;;;;;1.90;1.10;;;;;;;16.67;53.39;100148.77;104053;1294;22881;-81
2022/07/15 05:45:40;;;;;;;3.90;1.30;;;;;;;16.76;53.37;100149.30;104193;1293;24253;-75
2022/07/15 05:48:08;;;;;;;2.80;1.30;;;;;;;16.88;53.39;100153.12;104086;1287;22605;-74
2022/07/15 05:50:41;;;;;;;2.20;1.00;;;;;;;16.97;53.38;100153.10;104750;1288;25305;-75
2022/07/15 05:53:08;;;;;;;5.20;1.50;;;;;;;17.02;53.33;100158.09;105116;1284;25240;-73
2022/07/15 05:55:35;;;;;;;6.60;1.70;;;;;;;17.05;53.25;100162.22;105185;1284;22719;-74
2022/07/15 05:58:06;;;;;;;5.00;1.20;;;;;;;17.07;53.41;100157.37;105684;1279;22575;-76
2022/07/15 06:00:34;;;;;;;5.60;1.40;;;;;;;17.10;53.50;100154.08;105951;1274;26673;-74
2022/07/15 06:03:01;;;;;;;5.20;1.80;;;;;;;17.17;53.57;100160.17;105779;1275;24388;-75
2022/07/15 06:05:30;;;;;;;3.30;1.30;;;;;;;17.20;53.38;100165.25;106219;1274;22551;-75
2022/07/15 06:08:00;;;;;;;3.40;1.50;;;;;;;17.21;53.48;100179.07;105230;1281;22526;-75
2022/07/15 06:10:31;;;;;;;3.60;1.60;;;;;;;17.21;53.58;100180.30;105276;1281;25000;-76
2022/07/15 06:12:58;;;;;;;5.60;1.20;;;;;;;17.24;53.75;100186.05;105524;1281;25677;-75
2022/07/15 06:15:26;;;;;;;1.60;1.10;;;;;;;17.19;53.70;100188.41;105357;1281;25019;-78
2022/07/15 06:17:53;;;;;;;4.00;0.90;;;;;;;17.10;54.04;100184.48;105223;1281;24127;-76
2022/07/15 06:20:23;;;;;;;3.00;1.20;;;;;;;17.00;54.41;100179.31;105603;1281;25678;-75
2022/07/15 06:22:50;;;;;;;7.30;1.30;;;;;;;16.90;54.50;100181.69;105482;1282;22608;-74
2022/07/15 06:25:18;;;;;;;2.70;1.40;;;;;;;16.80;54.77;100181.67;105558;1273;22624;-78
2022/07/15 06:27:46;;;;;;;6.60;1.40;;;;;;;16.81;55.12;100195.34;105866;1274;22850;-75
2022/07/15 06:30:14;;;;;;;3.70;1.60;;;;;;;16.79;55.02;100195.77;106042;1273;22531;-75
2022/07/15 06:32:43;;;;;;;3.10;1.30;;;;;;;16.83;55.22;100198.81;105892;1276;22725;-75
2022/07/15 06:35:10;;;;;;;2.90;1.20;;;;;;;16.91;55.10;100201.38;106100;1274;22552;-76
2022/07/15 06:37:38;;;;;;;3.60;1.40;;;;;;;16.94;55.05;100201.95;106006;1273;22696;-74
2022/07/15 06:40:06;;;;;;;3.20;1.10;;;;;;;16.92;55.35;100201.52;105981;1274;23928;-74
2022/07/15 06:42:33;;;;;;;5.00;1.70;;;;;;;16.93;55.56;100203.27;105652;1279;401205;-77
2022/07/15 06:45:04;;;;;;;4.10;1.30;;;;;;;16.95;55.72;100203.91;105052;1285;25096;-77
2022/07/15 06:47:31;;;;;;;3.30;1.30;;;;;;;17.00;55.96;100208.85;105078;1285;25637;-75
2022/07/15 06:50:01;;;;;;;3.90;1.00;;;;;;;17.05;55.93;100197.79;104490;1290;22807;-75
2022/07/15 06:52:28;;;;;;;2.60;1.30;;;;;;;17.10;55.86;100197.85;104501;1293;22593;-75
2022/07/15 06:54:55;;;;;;;3.20;1.30;;;;;;;17.15;55.67;100196.40;104474;1290;25342;-75
2022/07/15 06:57:22;;;;;;;6.00;1.60;;;;;;;17.17;55.57;100195.40;104597;1290;23387;-79
2022/07/15 06:59:53;;;;;;;4.20;1.40;;;;;;;17.22;55.57;100200.72;104688;1291;23452;-81
2022/07/15 07:02:23;;;;;;;4.70;1.30;;;;;;;17.34;55.42;100203.27;105073;1285;22562;-75
2022/07/15 07:04:50;;;;;;;3.10;0.90;;;;;;;17.46;55.39;100203.17;104923;1286;22559;-71
2022/07/15 07:07:17;;;;;;;2.40;0.80;;;;;;;17.58;54.72;100200.88;104995;1285;22629;-74
2022/07/15 07:09:45;;;;;;;4.00;1.20;;;;;;;17.66;54.21;100200.37;105137;1285;24047;-77
2022/07/15 07:12:12;;;;;;;3.50;1.30;;;;;;;17.73;54.02;100205.64;104980;1285;22569;-77
2022/07/15 07:14:39;;;;;;;3.20;1.10;;;;;;;17.76;53.74;100204.80;105300;1279;22740;-75
2022/07/15 07:17:06;;;;;;;3.20;1.30;;;;;;;17.81;53.87;100206.71;105263;1281;24236;-75
2022/07/15 07:19:33;;;;;;;3.50;1.20;;;;;;;17.90;53.98;100207.05;105744;1279;22772;-71
2022/07/15 07:22:00;;;;;;;5.50;1.40;;;;;;;17.94;53.84;100205.80;105685;1279;22548;-77
2022/07/15 07:24:27;;;;;;;2.00;1.00;;;;;;;17.89;53.76;100205.13;106167;1273;22564;-74
2022/07/15 07:26:54;;;;;;;3.70;1.10;;;;;;;17.81;54.00;100199.02;106095;1273;24218;-74
2022/07/15 07:29:24;;;;;;;3.70;1.20;;;;;;;17.86;54.07;100200.45;105652;1279;25483;-77
2022/07/15 07:31:52;;;;;;;1.60;1.20;;;;;;;17.96;54.10;100208.58;105330;1279;24238;-74
2022/07/15 07:34:19;;;;;;;2.60;1.10;;;;;;;18.03;53.90;100213.42;105603;1279;24257;-74
2022/07/15 07:36:48;;;;;;;5.10;1.30;;;;;;;18.07;53.46;100214.38;105658;1279;24262;-77
2022/07/15 07:39:16;;;;;;;2.70;1.20;;;;;;;18.11;53.25;100217.22;105802;1279;25657;-79
2022/07/15 07:41:44;;;;;;;3.40;1.90;;;;;;;18.13;53.29;100217.16;105429;1279;22596;-72
2022/07/15 07:44:11;;;;;;;3.30;1.10;;;;;;;18.11;53.64;100213.50;105680;1279;23055;-71
2022/07/15 07:46:38;;;;;;;4.20;1.20;;;;;;;18.09;53.40;100219.60;105837;1273;25441;-74
2022/07/15 07:49:05;;;;;;;3.30;1.20;;;;;;;18.05;53.35;100222.63;106048;1273;25441;-72
2022/07/15 07:51:52;;;;;;;1.70;1.20;;;;;;;18.02;53.34;100220.61;106209;1274;22528;-76
2022/07/15 07:54:19;;;;;;;4.30;1.40;;;;;;;18.06;53.23;100224.36;106240;1273;25444;-72
2022/07/15 07:56:45;;;;;;;4.00;1.50;;;;;;;18.07;53.16;100223.61;106248;1274;22612;-75
2022/07/15 07:59:13;;;;;;;2.30;1.30;;;;;;;18.14;52.58;100227.80;105995;1274;22530;-71
2022/07/15 08:01:40;;;;;;;3.10;1.20;;;;;;;18.10;52.70;100222.27;106328;1272;22901;-71
2022/07/15 08:04:07;;;;;;;2.20;0.80;;;;;;;18.14;52.83;100231.69;106154;1273;22770;-73
2022/07/15 08:06:34;;;;;;;5.10;1.30;;;;;;;18.21;52.70;100236.95;106082;1274;22532;-71
2022/07/15 08:09:01;;;;;;;2.40;1.30;;;;;;;18.30;52.56;100233.70;106779;1273;25448;-73
2022/07/15 08:11:29;;;;;;;7.00;1.10;;;;;;;18.38;51.97;100233.73;107985;1274;22927;-80
2022/07/15 08:13:56;;;;;;;4.00;1.00;;;;;;;18.43;51.75;100236.52;108429;1274;22701;-72
2022/07/15 08:16:24;;;;;;;1.10;0.80;;;;;;;18.43;51.60;100243.48;108683;1273;22734;-73
2022/07/15 08:18:53;;;;;;;1.30;0.80;;;;;;;18.45;52.00;100244.27;108678;1273;22629;-73
2022/07/15 08:21:20;;;;;;;3.20;1.20;;;;;;;18.51;51.71;100240.10;108543;1273;22716;-73
2022/07/15 08:23:48;;;;;;;2.00;0.90;;;;;;;18.61;51.26;100249.83;107956;1273;23754;-73
2022/07/15 08:26:22;;;;;;;3.40;1.00;;;;;;;18.68;50.95;100246.83;107480;1273;22463;-72
2022/07/15 08:28:55;;;;;;;2.40;0.80;;;;;;;18.74;49.00;100243.17;107659;1274;22550;-76
2022/07/15 08:31:33;;;;;;;3.00;0.70;;;;;;;18.80;47.18;100245.02;107725;1273;23404;-76
2022/07/15 08:34:03;;;;;;;1.40;0.70;;;;;;;18.85;46.19;100243.20;107876;1273;26462;-77
2022/07/15 08:36:30;;;;;;;1.40;0.60;;;;;;;18.88;46.47;100248.06;107895;1273;23066;-85
2022/07/15 08:38:57;;;;;;;1.50;0.60;;;;;;;18.97;44.73;100253.00;108476;1273;22589;-79
2022/07/15 08:41:24;;;;;;;4.00;0.50;;;;;;;18.98;44.52;100253.68;109288;1273;22543;-77
2022/07/15 08:43:51;;;;;;;1.90;1.00;;;;;;;19.04;44.80;100256.96;109229;1273;22545;-80
2022/07/15 08:46:20;;;;;;;1.40;0.80;;;;;;;19.13;46.12;100251.93;108659;1273;22557;-78
2022/07/15 08:48:51;;;;;;;1.60;0.90;;;;;;;19.13;46.74;100255.84;107155;1279;22932;-77
2022/07/15 08:51:24;;;;;;;4.20;0.70;;;;;;;19.09;46.09;100258.92;106450;1279;24384;-75
2022/07/15 08:53:55;;;;;;;1.40;0.60;;;;;;;19.01;45.52;100261.39;105884;1279;22566;-78
2022/07/15 08:56:22;;;;;;;3.80;0.90;;;;;;;18.92;44.89;100258.77;105735;1279;24048;-78
2022/07/15 08:58:49;;;;;;;3.30;0.80;;;;;;;18.87;45.06;100257.59;105781;1279;23994;-78
2022/07/15 09:01:28;;;;;;;1.50;0.80;;;;;;;18.94;44.88;100258.88;105890;1279;25854;-78
2022/07/15 09:03:56;;;;;;;1.70;0.70;;;;;;;19.08;44.59;100267.16;105858;1279;22882;-77
2022/07/15 09:06:38;;;;;;;3.00;0.70;;;;;;;19.13;44.33;100259.63;105876;1273;24154;-77
2022/07/15 09:09:36;;;;;;;2.00;0.50;;;;;;;19.22;43.32;100257.43;106255;1274;24073;-78
2022/07/15 09:12:07;;;;;;;3.30;1.20;;;;;;;19.29;42.41;100262.83;106286;1273;22746;-78
2022/07/15 09:14:44;;;;;;;3.40;1.90;;;;;;;19.39;42.44;100261.63;106225;1273;23174;-78
2022/07/15 09:17:12;;;;;;;4.20;1.10;;;;;;;19.53;42.79;100260.08;106508;1273;22550;-77
2022/07/15 09:19:57;;;;;;;2.60;0.60;;;;;;;19.77;42.65;100260.69;106594;1274;25362;-79
2022/07/15 09:22:27;;;;;;;5.00;0.80;;;;;;;19.83;42.45;100261.07;105901;1279;22710;-78
2022/07/15 09:25:07;;;;;;;2.60;0.80;;;;;;;19.81;42.03;100265.31;105867;1279;22566;-80
2022/07/15 09:27:39;;;;;;;4.30;0.80;;;;;;;19.89;41.96;100260.61;105606;1279;25508;-80
2022/07/15 09:33:36;;;;;;;1.90;0.60;;;;;;;19.65;40.97;100271.80;105788;1279;25371;-79
2022/07/15 09:36:06;;;;;;;1.10;0.70;;;;;;;19.31;41.36;100272.89;105470;1279;22569;-80
2022/07/15 09:39:00;;;;;;;3.10;0.80;;;;;;;19.12;42.08;100276.11;104676;1288;22546;-79
2022/07/15 09:41:33;;;;;;;1.10;0.70;;;;;;;19.28;42.53;100273.57;105453;1280;25388;-77
2022/07/15 09:44:15;;;;;;;3.40;0.70;;;;;;;19.29;42.48;100281.01;105069;1285;23448;-80
2022/07/15 09:46:47;;;;;;;5.60;0.80;;;;;;;19.35;41.93;100270.90;104551;1293;24246;-80
2022/07/15 09:49:15;;;;;;;1.70;0.60;;;;;;;19.32;42.17;100276.23;104264;1296;25278;-80
2022/07/15 09:51:47;;;;;;;0.90;0.50;;;;;;;19.31;42.68;100275.73;104137;1297;25282;-82
2022/07/15 09:54:16;;;;;;;1.80;0.90;;;;;;;19.28;42.30;100277.64;104026;1297;24616;-77
2022/07/15 09:56:45;;;;;;;2.50;0.80;;;;;;;19.31;42.11;100284.50;104157;1294;24358;-77
2022/07/15 09:59:13;;;;;;;2.80;0.70;;;;;;;19.50;41.83;100280.73;104459;1294;24211;-77
2022/07/15 10:01:40;;;;;;;1.10;0.60;;;;;;;19.71;41.62;100284.00;103998;1297;22565;-76
2022/07/15 10:04:09;;;;;;;1.60;0.70;;;;;;;19.83;40.90;100270.92;103578;1299;25399;-77
2022/07/15 10:06:38;;;;;;;2.20;0.80;;;;;;;19.91;41.23;100270.35;103604;1299;24317;-77
2022/07/15 10:09:06;;;;;;;2.60;0.90;;;;;;;20.10;40.71;100271.24;103722;1296;22547;-82
2022/07/15 10:11:39;;;;;;;2.20;0.70;;;;;;;20.33;40.66;100272.19;103541;1302;25673;-77
2022/07/15 10:18:35;;;;;;;1.90;0.80;;;;;;;20.17;38.97;100276.43;104377;1293;24928;-77
2022/07/15 10:25:02;;;;;;;2.50;1.20;;;;;;;19.91;39.75;100279.83;105396;1281;24246;-73
2022/07/15 10:31:40;;;;;;;3.20;0.60;;;;;;;20.49;38.10;100280.67;105963;1273;22887;-75
2022/07/15 10:34:10;;;;;;;3.70;0.90;;;;;;;20.69;37.38;100280.91;106414;1273;22529;-75
2022/07/15 10:44:49;;;;;;;4.50;1.50;;;;;;;20.16;37.78;100290.05;105562;1281;26620;-76
2022/07/15 10:47:18;;;;;;;1.70;0.70;;;;;;;20.11;37.44;100292.46;106000;1273;22685;-79
2022/07/15 10:49:50;;;;;;;2.70;0.80;;;;;;;20.26;37.63;100289.16;106168;1274;25243;-77
2022/07/15 10:56:41;;;;;;;3.50;0.70;;;;;;;20.87;37.30;100294.95;106573;1273;22625;-76
2022/07/15 10:59:11;;;;;;;1.50;0.50;;;;;;;20.95;37.09;100290.23;106370;1273;22692;-78
2022/07/15 11:01:39;;;;;;;1.10;0.50;;;;;;;21.08;37.05;100296.03;106123;1274;22540;-76
2022/07/15 11:04:20;;;;;;;5.60;1.00;;;;;;;20.89;37.37;100299.87;106203;1271;25351;-75
2022/07/15 11:07:12;;;;;;;3.50;0.70;;;;;;;20.63;37.95;100307.14;106132;1274;24984;-76
2022/07/15 11:10:14;;;;;;;6.50;0.80;;;;;;;20.51;38.57;100301.70;106169;1273;24469;-78
2022/07/15 11:12:50;;;;;;;2.70;1.00;;;;;;;20.78;38.45;100301.70;106152;1273;22702;-75
2022/07/15 11:15:23;;;;;;;4.60;0.70;;;;;;;21.00;38.24;100301.29;106168;1273;22547;-78
2022/07/15 11:17:53;;;;;;;3.10;0.70;;;;;;;21.07;38.02;100299.27;106264;1273;22569;-77
2022/07/15 11:20:31;;;;;;;2.40;0.80;;;;;;;21.17;37.62;100306.64;106071;1273;25389;-76
2022/07/15 11:23:00;;;;;;;2.60;0.80;;;;;;;21.10;37.22;100307.14;106306;1272;25646;-72
2022/07/15 11:29:20;;;;;;;2.20;1.10;;;;;;;20.47;37.35;100308.13;105851;1273;24282;-75
2022/07/15 11:31:52;;;;;;;1.50;0.60;;;;;;;20.31;38.07;100307.73;106156;1274;25384;-73
2022/07/15 11:34:20;;;;;;;2.50;0.70;;;;;;;20.19;38.44;100307.05;106457;1273;22544;-76
2022/07/15 11:44:45;;;;;;;0.90;0.60;;;;;;;19.82;39.05;100317.42;105826;1278;22721;-76
2022/07/15 11:47:14;;;;;;;2.30;0.70;;;;;;;19.74;39.02;100314.58;105451;1279;25378;-76
2022/07/15 11:53:56;;;;;;;1.30;0.50;;;;;;;19.67;38.75;100316.00;105354;1284;22556;-75
2022/07/15 12:00:49;;;;;;;3.00;0.70;;;;;;;19.63;38.12;100318.69;105751;1279;22550;-77
2022/07/15 12:03:17;;;;;;;1.60;0.70;;;;;;;19.82;37.65;100312.60;105628;1279;24324;-75
2022/07/15 12:14:17;;;;;;;2.30;0.70;;;;;;;21.14;34.94;100322.55;106159;1273;22581;-76
2022/07/15 12:21:12;;;;;;;2.90;0.70;;;;;;;21.51;33.37;100332.73;106164;1274;26230;-76
2022/07/15 12:23:38;;;;;;;1.40;0.70;;;;;;;21.55;33.46;100320.15;106281;1274;26515;-76
2022/07/15 12:30:07;;;;;;;3.90;0.90;;;;;;;20.88;34.99;100329.80;106484;1273;23274;-77
2022/07/15 12:33:22;;;;;;;5.10;0.60;;;;;;;20.87;35.55;100339.17;105941;1276;22548;-81
2022/07/15 12:40:07;;;;;;;2.70;0.70;;;;;;;21.32;34.34;100333.91;106064;1276;22721;-77
2022/07/15 12:42:48;;;;;;;2.10;0.80;;;;;;;21.54;34.52;100343.47;105937;1276;24323;-76
2022/07/15 12:45:21;;;;;;;2.50;0.60;;;;;;;21.67;33.54;100349.42;105782;1279;22538;-77
2022/07/15 12:47:58;;;;;;;2.30;0.80;;;;;;;21.76;33.23;100348.17;105932;1276;23763;-73
2022/07/15 12:50:26;;;;;;;1.20;0.50;;;;;;;21.90;32.66;100341.48;105895;1273;22538;-74
2022/07/15 12:52:54;;;;;;;2.80;0.70;;;;;;;22.00;32.44;100339.67;106080;1273;22544;-75
2022/07/15 12:55:32;;;;;;;0.90;0.50;;;;;;;22.07;32.68;100341.08;106099;1274;22524;-76
2022/07/15 12:58:11;;;;;;;1.80;0.50;;;;;;;22.20;32.49;100333.30;106183;1274;23919;-74
2022/07/15 13:00:39;;;;;;;1.00;0.40;;;;;;;22.23;32.26;100340.12;106183;1273;22528;-73
2022/07/15 13:03:10;;;;;;;4.80;0.90;;;;;;;22.13;32.32;100339.98;106099;1273;25321;-73